createdAt,value
2022-09-24T00:01:59.418Z,100954.16
2022-09-24T00:04:27.511Z,100950.91
2022-09-24T00:06:55.337Z,100951.04
2022-09-24T00:09:23.298Z,100949.64
2022-09-24T00:11:52.883Z,100944.61
2022-09-24T00:14:21.067Z,100945.52
2022-09-24T00:16:49.064Z,100946.91
2022-09-24T00:19:16.774Z,100945.86
2022-09-24T00:21:44.756Z,100947.05
2022-09-24T00:24:34.669Z,100947.52
2022-09-24T00:27:03.527Z,100948.85
2022-09-24T00:29:33.474Z,100946.31
2022-09-24T00:32:01.831Z,100940.98
2022-09-24T00:34:29.982Z,100943.34
2022-09-24T00:36:58.588Z,100940.29
2022-09-24T00:39:26.856Z,100937.98
2022-09-24T00:41:55.162Z,100942.13
2022-09-24T00:44:40.795Z,100939.97
2022-09-24T00:47:11.578Z,100936.02
2022-09-24T00:49:40.436Z,100936.41
2022-09-24T00:52:08.632Z,100929.84
2022-09-24T00:54:36.906Z,100932.70
2022-09-24T00:57:04.822Z,100935.69
2022-09-24T00:59:32.816Z,100941.57
2022-09-24T01:02:02.509Z,100939.41
2022-09-24T01:04:30.587Z,100940.11
2022-09-24T01:06:58.977Z,100944.75
2022-09-24T01:09:27.394Z,100942.85
2022-09-24T01:12:02.123Z,100949.60
2022-09-24T01:14:37.472Z,100950.08
2022-09-24T01:17:11.098Z,100946.11
2022-09-24T01:19:48.943Z,100946.21
2022-09-24T01:22:23.302Z,100941.89
2022-09-24T01:24:58.664Z,100941.91
2022-09-24T01:27:31.602Z,100940.41
2022-09-24T01:30:04.283Z,100940.27
2022-09-24T01:32:36.811Z,100942.77
2022-09-24T01:35:08.232Z,100941.38
2022-09-24T01:37:37.687Z,100937.25
2022-09-24T01:40:07.477Z,100939.81
2022-09-24T01:42:37.770Z,100938.16
2022-09-24T01:45:06.848Z,100940.73
2022-09-24T01:47:39.227Z,100942.91
2022-09-24T01:50:08.797Z,100943.81
2022-09-24T01:52:40.912Z,100944.75
2022-09-24T01:55:11.180Z,100944.84
2022-09-24T01:57:42.153Z,100946.52
2022-09-24T02:00:13.592Z,100945.77
2022-09-24T02:02:45.384Z,100948.59
2022-09-24T02:05:16.596Z,100949.09
2022-09-24T02:07:50.080Z,100948.48
2022-09-24T02:10:20.452Z,100954.61
2022-09-24T02:12:50.446Z,100953.55
2022-09-24T02:15:20.975Z,100954.79
2022-09-24T02:17:52.826Z,100957.34
2022-09-24T02:20:21.386Z,100957.97
2022-09-24T02:22:50.101Z,100955.13
2022-09-24T02:25:20.715Z,100959.33
2022-09-24T02:27:48.541Z,100957.77
2022-09-24T02:30:16.777Z,100959.52
2022-09-24T02:32:44.757Z,100962.66
2022-09-24T02:35:13.020Z,100960.33
2022-09-24T02:37:41.690Z,100963.23
2022-09-24T02:40:11.769Z,100963.77
2022-09-24T02:42:40.612Z,100959.27
2022-09-24T02:45:09.622Z,100958.98
2022-09-24T02:47:37.770Z,100954.81
2022-09-24T02:50:06.575Z,100955.06
2022-09-24T02:52:34.469Z,100956.88
2022-09-24T02:55:02.393Z,100954.05
2022-09-24T02:57:30.264Z,100954.98
2022-09-24T02:59:58.143Z,100955.65
2022-09-24T03:02:26.043Z,100962.21
2022-09-24T03:04:54.584Z,100963.27
2022-09-24T03:07:22.410Z,100969.80
2022-09-24T03:09:50.156Z,100967.20
2022-09-24T03:12:17.949Z,100973.27
2022-09-24T03:14:45.867Z,100971.19
2022-09-24T03:17:13.583Z,100976.55
2022-09-24T03:19:41.448Z,100975.93
2022-09-24T03:22:09.351Z,100978.98
2022-09-24T03:24:37.056Z,100985.66
2022-09-24T03:27:04.931Z,100984.69
2022-09-24T03:29:50.730Z,100989.27
2022-09-24T03:32:18.623Z,100988.63
2022-09-24T03:34:46.796Z,100990.92
2022-09-24T03:37:14.622Z,100989.20
2022-09-24T03:39:42.616Z,100995.20
2022-09-24T03:42:10.497Z,100998.95
2022-09-24T03:44:38.428Z,101002.84
2022-09-24T03:47:06.348Z,101004.39
2022-09-24T03:49:34.372Z,101008.05
2022-09-24T03:52:02.491Z,101005.41
2022-09-24T03:54:30.767Z,101005.83
2022-09-24T03:56:58.624Z,101010.19
2022-09-24T03:59:26.554Z,101021.16
2022-09-24T04:01:54.821Z,101022.29
2022-09-24T04:04:22.978Z,101028.87
2022-09-24T04:06:52.257Z,101033.42
2022-09-24T04:09:20.233Z,101036.55
2022-09-24T04:11:48.196Z,101037.67
2022-09-24T04:14:15.915Z,101042.95
2022-09-24T04:16:44.740Z,101049.04
2022-09-24T04:19:12.731Z,101049.31
2022-09-24T04:21:40.711Z,101047.05
2022-09-24T04:24:08.974Z,101048.22
2022-09-24T04:26:36.895Z,101048.13
2022-09-24T04:29:04.749Z,101046.12
2022-09-24T04:31:32.878Z,101050.24
2022-09-24T04:34:01.459Z,101049.56
2022-09-24T04:36:29.434Z,101052.80
2022-09-24T04:38:57.415Z,101057.48
2022-09-24T04:41:25.402Z,101060.25
2022-09-24T04:43:53.339Z,101059.80
2022-09-24T04:46:21.297Z,101063.89
2022-09-24T04:48:49.565Z,101066.92
2022-09-24T04:51:18.864Z,101065.09
2022-09-24T04:53:47.285Z,101063.73
2022-09-24T04:56:15.032Z,101068.98
2022-09-24T04:58:43.091Z,101073.96
2022-09-24T05:01:12.770Z,101076.25
2022-09-24T05:03:40.639Z,101074.84
2022-09-24T05:06:08.632Z,101072.38
2022-09-24T05:08:36.420Z,101076.85
2022-09-24T05:11:04.353Z,101082.48
2022-09-24T05:13:32.316Z,101079.00
2022-09-24T05:16:00.432Z,101079.59
2022-09-24T05:18:28.386Z,101078.35
2022-09-24T05:20:56.362Z,101072.96
2022-09-24T05:23:24.603Z,101074.35
2022-09-24T05:26:10.565Z,101073.03
2022-09-24T05:28:38.943Z,101079.39
2022-09-24T05:31:08.551Z,101077.49
2022-09-24T05:33:37.016Z,101084.23
2022-09-24T05:36:04.971Z,101083.79
2022-09-24T05:38:33.085Z,101084.24
2022-09-24T05:41:00.910Z,101083.41
2022-09-24T05:43:28.876Z,101079.88
2022-09-24T05:45:58.138Z,101076.81
2022-09-24T05:48:26.165Z,101076.02
2022-09-24T05:50:55.839Z,101078.39
2022-09-24T05:53:24.931Z,101079.28
2022-09-24T05:55:52.865Z,101080.73
2022-09-24T05:58:20.963Z,101081.89
2022-09-24T06:00:49.342Z,101091.28
2022-09-24T06:03:18.480Z,101093.08
2022-09-24T06:05:48.052Z,101088.83
2022-09-24T06:08:16.247Z,101089.10
2022-09-24T06:10:45.223Z,101091.66
2022-09-24T06:13:13.570Z,101094.88
2022-09-24T06:15:42.148Z,101099.44
2022-09-24T06:18:10.482Z,101104.02
2022-09-24T06:20:39.639Z,101103.27
2022-09-24T06:23:07.735Z,101107.18
2022-09-24T06:25:35.726Z,101105.66
2022-09-24T06:28:04.588Z,101106.95
2022-09-24T06:30:34.142Z,101113.52
2022-09-24T06:33:04.813Z,101118.58
2022-09-24T06:35:35.079Z,101116.23
2022-09-24T06:38:02.873Z,101120.59
2022-09-24T06:40:36.204Z,101123.03
2022-09-24T06:43:06.031Z,101127.89
2022-09-24T06:45:34.254Z,101134.50
2022-09-24T06:48:03.613Z,101134.52
2022-09-24T06:50:32.371Z,101143.60
2022-09-24T06:53:00.387Z,101144.27
2022-09-24T06:55:28.129Z,101145.95
2022-09-24T06:58:06.080Z,101148.48
2022-09-24T07:00:34.222Z,101145.14
2022-09-24T07:03:02.459Z,101144.98
2022-09-24T07:05:30.254Z,101142.72
2022-09-24T07:07:58.100Z,101146.41
2022-09-24T07:10:27.497Z,101150.64
2022-09-24T07:12:55.546Z,101156.45
2022-09-24T07:15:23.757Z,101155.73
2022-09-24T07:17:55.494Z,101163.17
2022-09-24T07:20:23.723Z,101162.11
2022-09-24T07:22:51.663Z,101163.83
2022-09-24T07:25:19.542Z,101157.39
2022-09-24T07:27:47.908Z,101163.83
2022-09-24T07:30:16.407Z,101155.77
2022-09-24T07:32:44.335Z,101154.51
2022-09-24T07:35:12.256Z,101157.50
2022-09-24T07:37:40.098Z,101158.05
2022-09-24T07:40:09.550Z,101159.27
2022-09-24T07:42:38.684Z,101159.91
2022-09-24T07:45:07.963Z,101160.38
2022-09-24T07:47:35.932Z,101162.56
2022-09-24T07:50:04.404Z,101166.23
2022-09-24T07:52:32.316Z,101164.52
2022-09-24T07:55:00.286Z,101162.42
2022-09-24T07:57:28.252Z,101160.95
2022-09-24T07:59:56.101Z,101157.84
2022-09-24T08:02:24.479Z,101158.48
2022-09-24T08:04:52.691Z,101161.70
2022-09-24T08:07:20.603Z,101160.97
2022-09-24T08:09:48.558Z,101158.98
2022-09-24T08:12:16.515Z,101157.73
2022-09-24T08:14:44.603Z,101161.95
2022-09-24T08:17:13.005Z,101164.11
2022-09-24T08:19:42.728Z,101158.23
2022-09-24T08:22:11.913Z,101163.77
2022-09-24T08:24:40.003Z,101157.20
2022-09-24T08:27:07.908Z,101161.54
2022-09-24T08:29:36.446Z,101162.70
2022-09-24T08:32:04.692Z,101164.19
2022-09-24T08:34:37.820Z,101164.48
2022-09-24T08:37:05.773Z,101163.27
2022-09-24T08:39:33.895Z,101171.06
2022-09-24T08:42:04.076Z,101167.10
2022-09-24T08:44:54.903Z,101171.25
2022-09-24T08:47:31.736Z,101166.31
2022-09-24T08:50:03.010Z,101168.36
2022-09-24T08:52:36.622Z,101171.66
2022-09-24T08:55:07.755Z,101170.83
2022-09-24T08:57:38.388Z,101171.10
2022-09-24T09:00:07.675Z,101158.35
2022-09-24T09:02:40.946Z,101161.39
2022-09-24T09:05:15.791Z,101160.83
2022-09-24T09:07:49.274Z,101159.88
2022-09-24T09:10:25.750Z,101163.25
2022-09-24T09:12:55.207Z,101164.33
2022-09-24T09:15:25.354Z,101155.62
2022-09-24T09:17:57.045Z,101163.48
2022-09-24T09:20:27.690Z,101167.41
2022-09-24T09:22:58.303Z,101164.48
2022-09-24T09:25:28.008Z,101159.89
2022-09-24T09:27:58.857Z,101155.03
2022-09-24T09:30:29.769Z,101153.98
2022-09-24T09:33:04.072Z,101154.91
2022-09-24T09:35:35.965Z,101150.37
2022-09-24T09:38:07.421Z,101147.98
2022-09-24T09:40:36.124Z,101148.79
2022-09-24T09:43:05.223Z,101145.52
2022-09-24T09:45:36.570Z,101148.54
2022-09-24T09:48:05.027Z,101145.27
2022-09-24T09:50:36.280Z,101142.59
2022-09-24T09:53:04.346Z,101138.48
2022-09-24T09:55:34.185Z,101140.13
2022-09-24T09:58:09.801Z,101134.73
2022-09-24T10:00:38.311Z,101132.17
2022-09-24T10:03:06.368Z,101134.33
2022-09-24T10:05:34.552Z,101134.16
2022-09-24T10:08:02.285Z,101131.34
2022-09-24T10:10:30.464Z,101127.89
2022-09-24T10:13:08.684Z,101128.17
2022-09-24T10:15:45.265Z,101126.33
2022-09-24T10:18:14.740Z,101125.55
2022-09-24T10:20:46.153Z,101119.60
2022-09-24T10:23:18.906Z,101116.98
2022-09-24T10:25:51.468Z,101119.45
2022-09-24T10:28:38.396Z,101110.41
2022-09-24T10:31:10.256Z,101110.55
2022-09-24T10:33:38.793Z,101104.90
2022-09-24T10:36:07.722Z,101102.30
2022-09-24T10:38:35.638Z,101104.58
2022-09-24T10:41:12.949Z,101102.08
2022-09-24T10:43:49.789Z,101094.00
2022-09-24T10:46:21.031Z,101092.95
2022-09-24T10:48:54.228Z,101087.23
2022-09-24T10:51:29.557Z,101088.40
2022-09-24T10:54:03.419Z,101086.31
2022-09-24T10:56:34.434Z,101084.38
2022-09-24T10:59:16.428Z,101070.69
2022-09-24T11:01:48.763Z,101072.87
2022-09-24T11:04:22.507Z,101073.27
2022-09-24T11:06:57.681Z,101076.41
2022-09-24T11:09:31.381Z,101077.42
2022-09-24T11:12:04.773Z,101077.01
2022-09-24T11:14:44.553Z,101071.19
2022-09-24T11:17:25.201Z,101070.11
2022-09-24T11:20:04.874Z,101069.60
2022-09-24T11:22:37.519Z,101065.98
2022-09-24T11:25:18.079Z,101066.42
2022-09-24T11:27:50.702Z,101067.24
2022-09-24T11:30:19.646Z,101069.63
2022-09-24T11:32:59.183Z,101064.84
2022-09-24T11:35:35.461Z,101065.55
2022-09-24T11:38:08.239Z,101069.11
2022-09-24T11:40:42.463Z,101063.41
2022-09-24T11:43:21.163Z,101065.29
2022-09-24T11:45:58.598Z,101065.59
2022-09-24T11:48:40.867Z,101062.53
2022-09-24T11:51:14.881Z,101059.88
2022-09-24T11:53:44.717Z,101059.64
2022-09-24T11:56:17.859Z,101058.81
2022-09-24T11:58:48.707Z,101057.92
2022-09-24T12:01:20.173Z,101052.56
2022-09-24T12:03:52.877Z,101054.67
2022-09-24T12:06:24.539Z,101061.53
2022-09-24T12:08:55.817Z,101062.64
2022-09-24T12:11:30.372Z,101056.48
2022-09-24T12:14:01.946Z,101065.39
2022-09-24T12:16:33.098Z,101065.70
2022-09-24T12:19:05.552Z,101063.73
2022-09-24T12:21:36.214Z,101055.17
2022-09-24T12:24:06.742Z,101059.45
2022-09-24T12:26:37.547Z,101060.09
2022-09-24T12:29:35.653Z,101057.20
2022-09-24T12:32:24.421Z,101057.72
2022-09-24T12:34:56.488Z,101058.23
2022-09-24T12:37:29.110Z,101054.16
2022-09-24T12:40:01.453Z,101046.29
2022-09-24T12:42:32.536Z,101045.30
2022-09-24T12:45:01.202Z,101045.05
2022-09-24T12:47:32.668Z,101045.46
2022-09-24T12:50:01.866Z,101045.73
2022-09-24T12:52:35.065Z,101039.12
2022-09-24T12:55:03.752Z,101044.34
2022-09-24T12:57:35.134Z,101042.51
2022-09-24T13:00:05.268Z,101036.65
2022-09-24T13:02:45.120Z,101032.68
2022-09-24T13:05:18.997Z,101030.23
2022-09-24T13:07:56.858Z,101038.42
2022-09-24T13:10:26.591Z,101040.27
2022-09-24T13:12:55.766Z,101037.48
2022-09-24T13:15:34.491Z,101036.70
2022-09-24T13:18:04.130Z,101032.41
2022-09-24T13:20:33.389Z,101035.21
2022-09-24T13:23:12.222Z,101037.13
2022-09-24T13:25:41.020Z,101031.69
2022-09-24T13:28:21.210Z,101029.74
2022-09-24T13:30:51.867Z,101025.33
2022-09-24T13:33:24.587Z,101021.21
2022-09-24T13:36:02.832Z,101017.64
2022-09-24T13:38:33.457Z,101015.67
2022-09-24T13:41:04.464Z,101018.79
2022-09-24T13:43:39.634Z,101024.34
2022-09-24T13:46:15.845Z,101020.26
2022-09-24T13:48:47.424Z,101018.48
2022-09-24T13:51:16.763Z,101010.92
2022-09-24T13:53:49.103Z,101014.39
2022-09-24T13:56:18.836Z,101013.09
2022-09-24T13:58:46.958Z,101016.79
2022-09-24T14:01:16.655Z,101017.73
2022-09-24T14:03:53.468Z,101015.80
2022-09-24T14:06:30.576Z,101018.84
2022-09-24T14:08:58.487Z,101014.88
2022-09-24T14:11:26.906Z,101018.52
2022-09-24T14:13:55.808Z,101019.89
2022-09-24T14:16:24.137Z,101015.13
2022-09-24T14:19:02.373Z,101012.18
2022-09-24T14:21:32.965Z,101012.38
2022-09-24T14:24:03.332Z,101011.80
2022-09-24T14:26:34.156Z,101015.36
2022-09-24T14:29:05.590Z,101015.01
2022-09-24T14:31:41.901Z,101011.35
2022-09-24T14:34:22.151Z,101013.57
2022-09-24T14:36:50.954Z,101017.05
2022-09-24T14:39:18.864Z,101021.28
2022-09-24T14:41:46.756Z,101015.95
2022-09-24T14:44:20.869Z,101008.17
2022-09-24T14:46:49.985Z,101005.11
2022-09-24T14:49:20.291Z,101002.13
2022-09-24T14:51:51.966Z,100999.40
2022-09-24T14:54:21.794Z,101000.64
2022-09-24T14:56:49.628Z,101005.52
2022-09-24T14:59:27.727Z,101006.05
2022-09-24T15:02:03.675Z,101013.98
2022-09-24T15:04:31.573Z,101012.43
2022-09-24T15:06:59.457Z,101010.15
2022-09-24T15:09:28.515Z,101009.25
2022-09-24T15:12:06.543Z,101011.23
2022-09-24T15:14:35.548Z,101010.36
2022-09-24T15:17:09.849Z,101012.77
2022-09-24T15:19:42.532Z,101013.34
2022-09-24T15:22:10.487Z,101011.69
2022-09-24T15:24:38.311Z,101011.59
2022-09-24T15:27:07.359Z,101008.05
2022-09-24T15:29:36.406Z,101002.60
2022-09-24T15:32:12.506Z,100999.30
2022-09-24T15:34:40.336Z,101005.13
2022-09-24T15:37:10.670Z,101005.34
2022-09-24T15:39:39.360Z,101004.95
2022-09-24T15:42:08.407Z,101007.09
2022-09-24T15:44:36.347Z,101007.73
2022-09-24T15:47:04.179Z,101009.58
2022-09-24T15:49:32.060Z,101009.55
2022-09-24T15:52:01.976Z,101011.48
2022-09-24T15:54:29.784Z,101008.63
2022-09-24T15:56:58.257Z,101006.42
2022-09-24T15:59:27.235Z,101015.38
2022-09-24T16:01:57.784Z,101014.29
2022-09-24T16:04:25.749Z,101011.92
2022-09-24T16:06:53.627Z,101013.41
2022-09-24T16:09:21.513Z,101018.07
2022-09-24T16:11:49.467Z,101019.80
2022-09-24T16:14:17.440Z,101014.03
2022-09-24T16:16:45.318Z,101019.45
2022-09-24T16:19:13.533Z,101016.93
2022-09-24T16:21:41.450Z,101020.66
2022-09-24T16:24:09.294Z,101017.77
2022-09-24T16:26:38.072Z,101008.03
2022-09-24T16:29:08.223Z,101007.11
2022-09-24T16:31:36.077Z,101009.58
2022-09-24T16:34:03.930Z,101015.80
2022-09-24T16:36:31.944Z,101020.84
2022-09-24T16:39:00.195Z,101021.52
2022-09-24T16:41:33.658Z,101022.40
2022-09-24T16:44:01.794Z,101017.70
2022-09-24T16:46:30.460Z,101024.08
2022-09-24T16:48:58.408Z,101027.02
2022-09-24T16:51:26.284Z,101029.20
2022-09-24T16:53:55.264Z,101030.95
2022-09-24T16:56:23.411Z,101029.65
2022-09-24T16:58:51.908Z,101039.98
2022-09-24T17:01:21.154Z,101040.26
2022-09-24T17:03:51.857Z,101041.98
2022-09-24T17:06:20.510Z,101046.61
2022-09-24T17:09:06.961Z,101043.09
2022-09-24T17:11:35.395Z,101043.19
2022-09-24T17:14:03.271Z,101048.94
2022-09-24T17:16:31.381Z,101055.51
2022-09-24T17:18:59.925Z,101056.09
2022-09-24T17:21:27.876Z,101059.98
2022-09-24T17:23:55.771Z,101060.16
2022-09-24T17:26:24.466Z,101067.02
2022-09-24T17:28:53.160Z,101072.00
2022-09-24T17:31:22.351Z,101076.20
2022-09-24T17:33:55.647Z,101076.81
2022-09-24T17:36:23.993Z,101078.08
2022-09-24T17:38:51.847Z,101074.66
2022-09-24T17:41:19.740Z,101071.23
2022-09-24T17:43:47.624Z,101076.61
2022-09-24T17:46:16.534Z,101077.45
2022-09-24T17:48:46.091Z,101079.52
2022-09-24T17:51:14.972Z,101080.70
2022-09-24T17:53:43.044Z,101076.12
2022-09-24T17:56:12.376Z,101073.60
2022-09-24T17:58:40.779Z,101074.09
2022-09-24T18:01:10.009Z,101075.88
2022-09-24T18:03:38.601Z,101074.98
2022-09-24T18:06:07.634Z,101073.61
2022-09-24T18:08:36.941Z,101075.08
2022-09-24T18:11:05.841Z,101075.38
2022-09-24T18:13:34.165Z,101075.69
2022-09-24T18:16:05.558Z,101071.90
2022-09-24T18:18:33.685Z,101075.11
2022-09-24T18:21:02.120Z,101073.93
2022-09-24T18:23:30.508Z,101077.08
2022-09-24T18:26:09.854Z,101075.00
2022-09-24T18:28:38.543Z,101071.08
2022-09-24T18:31:07.898Z,101074.05
2022-09-24T18:33:36.857Z,101075.42
2022-09-24T18:36:06.604Z,101075.16
2022-09-24T18:38:34.804Z,101077.25
2022-09-24T18:41:08.724Z,101078.48
2022-09-24T18:43:36.799Z,101086.95
2022-09-24T18:46:05.603Z,101086.50
2022-09-24T18:48:33.510Z,101087.38
2022-09-24T18:51:01.869Z,101085.63
2022-09-24T18:53:30.821Z,101083.47
2022-09-24T18:55:59.348Z,101078.04
2022-09-24T18:58:27.360Z,101074.98
2022-09-24T19:00:58.623Z,101079.53
2022-09-24T19:03:27.879Z,101081.66
2022-09-24T19:05:59.412Z,101083.15
2022-09-24T19:08:28.039Z,101084.07
2022-09-24T19:11:00.471Z,101090.41
2022-09-24T19:13:28.355Z,101087.66
2022-09-24T19:15:56.275Z,101090.49
2022-09-24T19:18:24.247Z,101092.14
2022-09-24T19:20:52.781Z,101092.20
2022-09-24T19:23:20.647Z,101094.84
2022-09-24T19:25:48.710Z,101096.05
2022-09-24T19:28:16.485Z,101092.75
2022-09-24T19:30:45.371Z,101088.92
2022-09-24T19:33:15.406Z,101079.85
2022-09-24T19:35:52.027Z,101079.14
2022-09-24T19:38:21.675Z,101082.67
2022-09-24T19:40:56.680Z,101084.44
2022-09-24T19:43:24.818Z,101093.98
2022-09-24T19:45:57.573Z,101098.91
2022-09-24T19:48:26.183Z,101101.39
2022-09-24T19:50:54.604Z,101100.91
2022-09-24T19:53:22.384Z,101102.08
2022-09-24T19:55:50.380Z,101105.22
2022-09-24T19:58:18.258Z,101103.83
2022-09-24T20:00:46.128Z,101107.05
2022-09-24T20:03:15.115Z,101099.71
2022-09-24T20:05:43.129Z,101099.14
2022-09-24T20:08:12.036Z,101098.09
2022-09-24T20:10:40.715Z,101102.27
2022-09-24T20:13:10.066Z,101100.94
2022-09-24T20:15:38.263Z,101102.44
2022-09-24T20:18:06.843Z,101107.02
2022-09-24T20:20:34.954Z,101109.17
2022-09-24T20:23:02.816Z,101106.95
2022-09-24T20:25:48.090Z,101107.53
2022-09-24T20:28:16.096Z,101108.45
2022-09-24T20:30:44.107Z,101107.33
2022-09-24T20:33:12.631Z,101115.08
2022-09-24T20:35:41.523Z,101119.96
2022-09-24T20:38:09.694Z,101123.34
2022-09-24T20:40:40.684Z,101126.68
2022-09-24T20:43:08.739Z,101126.91
2022-09-24T20:45:40.768Z,101125.53
2022-09-24T20:48:08.636Z,101129.66
2022-09-24T20:50:36.467Z,101133.60
2022-09-24T20:53:04.307Z,101132.16
2022-09-24T20:55:32.426Z,101130.56
2022-09-24T20:58:00.677Z,101132.98
2022-09-24T21:00:35.049Z,101134.98
2022-09-24T21:03:15.468Z,101130.52
2022-09-24T21:05:51.778Z,101116.56
2022-09-24T21:08:19.711Z,101110.27
2022-09-24T21:10:47.516Z,101108.00
2022-09-24T21:13:15.383Z,101121.13
2022-09-24T21:15:43.373Z,101127.76
2022-09-24T21:18:22.863Z,101127.48
2022-09-24T21:20:52.063Z,101126.04
2022-09-24T21:23:21.484Z,101119.94
2022-09-24T21:25:54.446Z,101120.05
2022-09-24T21:28:23.174Z,101119.77
2022-09-24T21:30:57.304Z,101117.23
2022-09-24T21:33:25.324Z,101118.50
2022-09-24T21:35:53.899Z,101117.54
2022-09-24T21:38:21.631Z,101114.96
2022-09-24T21:40:53.090Z,101118.73
2022-09-24T21:43:23.043Z,101122.98
2022-09-24T21:45:52.011Z,101124.10
2022-09-24T21:48:19.894Z,101116.19
2022-09-24T21:50:47.822Z,101119.06
2022-09-24T21:53:15.754Z,101122.98
2022-09-24T21:55:47.801Z,101120.73
2022-09-24T21:58:15.664Z,101110.24
2022-09-24T22:00:43.397Z,101107.99
2022-09-24T22:03:11.792Z,101107.20
2022-09-24T22:05:42.341Z,101103.56
2022-09-24T22:08:12.371Z,101102.38
2022-09-24T22:10:40.943Z,101100.31
2022-09-24T22:13:09.316Z,101103.86
2022-09-24T22:15:37.186Z,101105.65
2022-09-24T22:18:05.413Z,101111.02
2022-09-24T22:20:33.252Z,101112.36
2022-09-24T22:23:00.970Z,101107.15
2022-09-24T22:25:28.880Z,101116.73
2022-09-24T22:27:56.741Z,101115.60
2022-09-24T22:30:24.733Z,101111.83
2022-09-24T22:32:52.694Z,101115.77
2022-09-24T22:35:50.005Z,101122.23
2022-09-24T22:38:18.313Z,101118.16
2022-09-24T22:40:46.150Z,101114.73
2022-09-24T22:43:14.036Z,101113.90
2022-09-24T22:45:42.876Z,101112.62
2022-09-24T22:48:10.767Z,101111.86
2022-09-24T22:50:38.553Z,101110.71
2022-09-24T22:53:06.517Z,101121.36
2022-09-24T22:55:34.380Z,101128.61
2022-09-24T22:58:02.244Z,101134.05
2022-09-24T23:00:30.040Z,101134.49
2022-09-24T23:02:57.945Z,101125.86
2022-09-24T23:05:26.250Z,101116.95
2022-09-24T23:07:54.153Z,101116.80
2022-09-24T23:10:21.995Z,101114.48
2022-09-24T23:12:49.908Z,101117.58
2022-09-24T23:15:18.607Z,101111.27
2022-09-24T23:17:47.238Z,101106.98
2022-09-24T23:20:16.199Z,101113.63
2022-09-24T23:22:44.096Z,101122.20
2022-09-24T23:25:12.165Z,101121.39
2022-09-24T23:27:39.919Z,101123.36
2022-09-24T23:30:09.121Z,101121.36
2022-09-24T23:32:36.979Z,101128.55
2022-09-24T23:35:05.595Z,101134.84
2022-09-24T23:37:33.446Z,101132.80
2022-09-24T23:40:02.019Z,101133.55
2022-09-24T23:42:30.808Z,101133.55
2022-09-24T23:44:58.718Z,101127.52
2022-09-24T23:47:26.542Z,101124.36
2022-09-24T23:49:54.640Z,101120.90
2022-09-24T23:52:22.640Z,101118.72
2022-09-24T23:54:50.597Z,101117.98
2022-09-24T23:57:18.486Z,101117.02
2022-09-24T23:59:46.433Z,101113.34
